createdAt,value
2023-03-29T00:03:19.049Z,6.70
2023-03-29T00:08:22.003Z,6.50
2023-03-29T00:13:23.705Z,6.40
2023-03-29T00:18:25.445Z,6.30
2023-03-29T00:23:27.511Z,6.10
2023-03-29T00:28:29.385Z,6.00
2023-03-29T00:33:31.474Z,5.90
2023-03-29T00:38:33.491Z,5.90
2023-03-29T00:43:52.173Z,5.80
2023-03-29T00:48:57.771Z,5.90
2023-03-29T00:54:03.248Z,6.00
2023-03-29T00:59:09.888Z,5.90
2023-03-29T01:04:22.592Z,5.90
2023-03-29T01:09:26.995Z,5.90
2023-03-29T01:14:39.290Z,5.60
2023-03-29T01:19:46.713Z,5.80
2023-03-29T01:24:55.009Z,5.90
2023-03-29T01:30:02.061Z,5.90
2023-03-29T01:35:32.479Z,6.00
2023-03-29T01:40:34.656Z,6.10
2023-03-29T01:45:51.064Z,6.20
2023-03-29T01:50:58.353Z,6.70
2023-03-29T01:56:07.633Z,6.60
2023-03-29T02:01:11.477Z,6.70
2023-03-29T02:06:18.563Z,6.70
2023-03-29T02:11:23.229Z,6.20
2023-03-29T02:16:24.943Z,6.20
2023-03-29T02:21:41.652Z,6.10
2023-03-29T02:26:44.613Z,6.10
2023-03-29T02:31:55.249Z,6.00
2023-03-29T02:37:06.770Z,6.00
2023-03-29T02:42:09.885Z,5.90
2023-03-29T02:47:24.854Z,6.00
2023-03-29T02:52:34.118Z,6.30
2023-03-29T02:57:38.286Z,6.30
2023-03-29T03:02:40.517Z,6.40
2023-03-29T03:07:44.210Z,6.50
2023-03-29T03:12:46.074Z,6.60
2023-03-29T03:17:49.311Z,6.60
2023-03-29T03:22:51.707Z,6.60
2023-03-29T03:27:54.417Z,6.50
2023-03-29T03:32:58.709Z,6.30
2023-03-29T03:38:19.198Z,6.10
2023-03-29T03:43:29.225Z,6.10
2023-03-29T03:48:32.381Z,6.00
2023-03-29T03:53:41.625Z,6.00
2023-03-29T03:58:49.200Z,6.00
2023-03-29T04:03:53.876Z,5.80
2023-03-29T04:08:56.757Z,5.80
2023-03-29T04:14:12.039Z,5.70
2023-03-29T04:19:34.112Z,5.90
2023-03-29T04:24:36.567Z,5.70
2023-03-29T04:30:11.462Z,5.90
2023-03-29T04:35:36.526Z,5.80
2023-03-29T04:40:38.533Z,5.90
2023-03-29T04:46:00.754Z,5.70
2023-03-29T04:51:24.480Z,5.60
2023-03-29T04:56:28.349Z,5.50
2023-03-29T05:02:08.709Z,5.50
2023-03-29T05:07:15.350Z,5.40
2023-03-29T05:12:17.290Z,5.40
2023-03-29T05:17:29.830Z,5.30
2023-03-29T05:22:38.304Z,5.30
2023-03-29T05:27:43.204Z,5.40
2023-03-29T05:32:46.816Z,5.60
2023-03-29T05:37:51.618Z,5.70
2023-03-29T05:42:53.718Z,5.90
2023-03-29T05:47:57.500Z,5.90
2023-03-29T05:52:59.466Z,6.20
2023-03-29T05:58:01.361Z,6.00
2023-03-29T06:03:14.022Z,6.30
2023-03-29T06:08:20.706Z,6.50
2023-03-29T06:13:42.172Z,6.40
2023-03-29T06:18:44.825Z,6.80
2023-03-29T06:23:47.364Z,6.80
2023-03-29T06:28:52.259Z,6.90
2023-03-29T06:33:54.868Z,7.20
2023-03-29T06:39:08.520Z,7.00
2023-03-29T06:44:28.990Z,7.30
2023-03-29T06:49:39.514Z,7.40
2023-03-29T06:54:55.350Z,7.60
2023-03-29T07:00:00.156Z,7.70
2023-03-29T07:05:21.935Z,8.20
2023-03-29T07:10:32.402Z,8.70
2023-03-29T07:16:00.356Z,9.10
2023-03-29T07:21:22.621Z,9.10
2023-03-29T07:26:28.963Z,9.40
2023-03-29T07:31:35.041Z,9.40
2023-03-29T07:37:07.129Z,9.60
2023-03-29T07:42:09.168Z,9.80
2023-03-29T07:47:11.092Z,9.70
2023-03-29T07:52:13.763Z,9.70
2023-03-29T07:57:16.033Z,9.70
2023-03-29T08:02:24.034Z,9.80
2023-03-29T08:07:29.033Z,9.90
2023-03-29T08:12:52.418Z,10.20
2023-03-29T08:17:58.364Z,10.40
2023-03-29T08:23:01.153Z,10.30
2023-03-29T08:28:22.335Z,10.60
2023-03-29T08:33:26.556Z,10.80
2023-03-29T08:38:48.243Z,11.00
2023-03-29T08:44:12.158Z,11.10
2023-03-29T08:49:27.023Z,11.40
2023-03-29T08:54:36.998Z,11.60
2023-03-29T09:00:02.293Z,11.70
2023-03-29T09:05:24.268Z,11.60
2023-03-29T09:11:04.831Z,11.60
2023-03-29T09:16:37.083Z,11.70
2023-03-29T09:21:46.511Z,11.40
2023-03-29T09:26:59.077Z,11.50
2023-03-29T09:32:11.694Z,11.60
2023-03-29T09:37:33.173Z,11.70
2023-03-29T09:42:37.950Z,12.00
2023-03-29T09:47:41.582Z,12.60
2023-03-29T09:52:47.794Z,12.80
2023-03-29T09:57:56.000Z,13.20
2023-03-29T10:03:00.539Z,13.20
2023-03-29T10:08:27.768Z,13.70
2023-03-29T10:13:35.400Z,13.90
2023-03-29T10:18:41.925Z,14.40
2023-03-29T10:23:44.222Z,14.90
2023-03-29T10:28:46.125Z,14.90
2023-03-29T10:34:06.809Z,14.90
2023-03-29T10:39:13.178Z,15.50
2023-03-29T10:44:27.664Z,17.10
2023-03-29T10:49:29.387Z,17.60
2023-03-29T10:54:31.426Z,16.60
2023-03-29T10:59:46.203Z,15.00
2023-03-29T11:04:58.523Z,14.70
2023-03-29T11:10:06.437Z,14.90
2023-03-29T11:15:11.299Z,15.10
2023-03-29T11:20:34.635Z,14.90
2023-03-29T11:26:04.501Z,15.40
2023-03-29T11:31:52.768Z,15.80
2023-03-29T11:37:16.322Z,16.00
2023-03-29T11:42:26.710Z,17.10
2023-03-29T11:47:32.814Z,16.60
2023-03-29T11:52:40.793Z,16.10
2023-03-29T11:57:58.792Z,16.00
2023-03-29T12:03:15.265Z,16.10
2023-03-29T12:08:24.194Z,16.40
2023-03-29T12:13:36.673Z,16.20
2023-03-29T12:18:45.787Z,15.90
2023-03-29T12:23:48.601Z,16.20
2023-03-29T12:29:05.378Z,16.00
2023-03-29T12:34:32.278Z,16.10
2023-03-29T12:39:36.025Z,16.20
2023-03-29T12:45:00.522Z,16.50
2023-03-29T12:50:17.300Z,16.20
2023-03-29T12:55:42.402Z,16.30
2023-03-29T13:00:45.158Z,16.40
2023-03-29T13:05:48.174Z,16.30
2023-03-29T13:10:56.556Z,17.20
2023-03-29T13:16:19.816Z,17.20
2023-03-29T13:21:44.887Z,17.60
2023-03-29T13:27:00.634Z,18.70
2023-03-29T13:32:16.042Z,17.60
2023-03-29T13:37:43.203Z,16.80
2023-03-29T13:43:00.870Z,16.50
2023-03-29T13:48:33.633Z,16.70
2023-03-29T13:53:40.838Z,17.40
2023-03-29T13:58:53.268Z,16.80
2023-03-29T14:03:56.619Z,16.20
2023-03-29T14:09:04.903Z,16.40
2023-03-29T14:14:08.359Z,15.80
2023-03-29T14:19:17.406Z,15.40
2023-03-29T14:24:26.983Z,15.30
2023-03-29T14:29:35.616Z,15.50
2023-03-29T14:34:38.173Z,15.60
2023-03-29T14:39:41.035Z,15.50
2023-03-29T14:44:44.410Z,14.90
2023-03-29T14:49:46.894Z,15.20
2023-03-29T14:54:53.134Z,15.40
2023-03-29T15:00:00.337Z,15.10
2023-03-29T15:05:07.623Z,15.00
2023-03-29T15:10:18.626Z,15.10
2023-03-29T15:15:22.862Z,15.10
2023-03-29T15:20:25.715Z,15.10
2023-03-29T15:25:37.049Z,15.10
2023-03-29T15:30:46.250Z,15.40
2023-03-29T15:35:53.646Z,15.40
2023-03-29T15:40:55.443Z,15.50
2023-03-29T15:45:57.945Z,15.50
2023-03-29T15:51:03.811Z,15.50
2023-03-29T15:56:11.534Z,15.60
2023-03-29T16:01:38.690Z,15.70
2023-03-29T16:06:41.258Z,15.60
2023-03-29T16:11:44.534Z,15.30
2023-03-29T16:16:46.762Z,15.30
2023-03-29T16:21:49.162Z,15.20
2023-03-29T16:26:55.681Z,15.00
2023-03-29T16:31:57.799Z,15.10
2023-03-29T16:36:59.600Z,15.10
2023-03-29T16:42:01.453Z,14.90
2023-03-29T16:47:03.224Z,14.80
2023-03-29T16:52:05.434Z,14.70
2023-03-29T16:57:07.712Z,14.60
2023-03-29T17:02:10.431Z,14.50
2023-03-29T17:07:12.243Z,14.10
2023-03-29T17:12:14.020Z,13.50
2023-03-29T17:17:16.193Z,13.40
2023-03-29T17:22:18.750Z,13.20
2023-03-29T17:27:21.020Z,12.90
2023-03-29T17:32:22.713Z,12.70
2023-03-29T17:37:24.531Z,12.40
2023-03-29T17:42:26.630Z,12.40
2023-03-29T17:47:28.379Z,12.70
2023-03-29T17:52:30.092Z,12.80
2023-03-29T17:57:31.787Z,12.70
2023-03-29T18:02:33.713Z,13.30
2023-03-29T18:07:35.801Z,13.70
2023-03-29T18:12:37.655Z,13.80
2023-03-29T18:17:39.390Z,13.80
2023-03-29T18:22:42.210Z,13.80
2023-03-29T18:27:44.093Z,13.90
2023-03-29T18:32:45.870Z,13.90
2023-03-29T18:37:47.616Z,13.80
2023-03-29T18:42:49.280Z,13.80
2023-03-29T18:47:52.307Z,13.80
2023-03-29T18:52:54.106Z,13.70
2023-03-29T18:57:56.200Z,13.80
2023-03-29T19:02:58.099Z,13.80
2023-03-29T19:08:00.967Z,13.80
2023-03-29T19:13:02.771Z,13.80
2023-03-29T19:18:04.764Z,13.80
2023-03-29T19:23:06.653Z,13.80
2023-03-29T19:28:08.650Z,13.90
2023-03-29T19:33:10.542Z,13.80
2023-03-29T19:38:12.679Z,13.80
2023-03-29T19:43:18.890Z,13.70
2023-03-29T19:48:23.328Z,13.70
2023-03-29T19:53:27.020Z,13.80
2023-03-29T19:58:28.707Z,13.60
2023-03-29T20:03:34.037Z,13.60
2023-03-29T20:08:38.688Z,13.70
2023-03-29T20:13:44.934Z,13.90
2023-03-29T20:18:46.760Z,13.90
2023-03-29T20:23:48.542Z,13.80
2023-03-29T20:28:50.252Z,13.80
2023-03-29T20:33:51.949Z,13.80
2023-03-29T20:38:56.101Z,13.60
2023-03-29T20:43:58.468Z,13.70
2023-03-29T20:49:08.877Z,12.90
2023-03-29T20:54:11.498Z,13.10
2023-03-29T20:59:13.265Z,12.70
2023-03-29T21:04:14.962Z,12.70
2023-03-29T21:09:19.178Z,12.60
2023-03-29T21:14:21.200Z,13.00
2023-03-29T21:19:24.148Z,13.20
2023-03-29T21:24:25.898Z,13.50
2023-03-29T21:29:28.000Z,13.40
2023-03-29T21:34:29.764Z,12.60
2023-03-29T21:39:31.476Z,12.20
2023-03-29T21:44:34.438Z,12.10
2023-03-29T21:49:36.357Z,11.80
2023-03-29T21:54:38.180Z,11.80
2023-03-29T21:59:39.864Z,11.70
2023-03-29T22:04:41.666Z,12.00
2023-03-29T22:09:43.594Z,12.10
2023-03-29T22:14:45.315Z,12.00
2023-03-29T22:19:47.473Z,11.90
2023-03-29T22:24:53.035Z,12.00
2023-03-29T22:29:54.708Z,12.20
2023-03-29T22:34:56.442Z,12.20
2023-03-29T22:39:58.141Z,12.20
2023-03-29T22:44:59.820Z,12.30
2023-03-29T22:50:01.652Z,12.40
2023-03-29T22:55:03.545Z,11.90
2023-03-29T23:00:08.941Z,11.70
2023-03-29T23:05:11.088Z,12.10
2023-03-29T23:10:13.082Z,12.10
2023-03-29T23:15:16.983Z,12.10
2023-03-29T23:20:20.946Z,12.40
2023-03-29T23:25:22.648Z,12.10
2023-03-29T23:30:24.776Z,12.10
2023-03-29T23:35:26.600Z,11.90
2023-03-29T23:40:28.335Z,12.00
2023-03-29T23:45:30.211Z,12.10
2023-03-29T23:50:31.910Z,12.70
2023-03-29T23:55:33.594Z,13.40
